Malaysia Virtual Airlines Airport Information Service

Kuching Airport

ICAO: WBGG Country: Malaysia
Latitude: 1.4847 Longitude: 110.347
Latest Arrival : MH2807 (WBKK-WBGG) Latest Departure : MH2547 (WBGG-WMKK)


WX CaptureLIVE
Data provided by noaa.gov | Fetched at 04:47:31

METAR : WBGG 290430Z VRB03KT 9999 SCT018 33/25 Q1008 NOSIG

TAF : WBGG 282300Z 2900/3000 14005KT 9999 SCT020 TEMPO 2905/2909 25010G20KT 4000 TSRA FEW015CB


Runway Data for WBGG
Data provided by openaviationdata.com

Runway ID Mag Var Hdg Length Elevation Surface ILS Freq ILS Id ILS Slope
7 1 67° 8063 ft 89 ft Asphalt -- -- --
25 1 247° 8063 ft 89 ft Asphalt 110.3 IKG 3

Kuching Airport, Malaysia
Use only for reference purposes



Not for navigational purposes.